sensor_id;sensor_type;location;lat;lon;timestamp;P1;durP1;ratioP1;P2;durP2;ratioP2
53652;SDS011;39553;52.954;5.932;2023-04-24T00:01:19;9.65;;;7.45;;
53652;SDS011;39553;52.954;5.932;2023-04-24T00:03:45;14.77;;;8.93;;
53652;SDS011;39553;52.954;5.932;2023-04-24T00:06:11;10.27;;;8.32;;
53652;SDS011;39553;52.954;5.932;2023-04-24T00:08:36;10.50;;;7.57;;
53652;SDS011;39553;52.954;5.932;2023-04-24T00:11:02;10.63;;;7.47;;
53652;SDS011;39553;52.954;5.932;2023-04-24T00:13:28;12.68;;;7.95;;
53652;SDS011;39553;52.954;5.932;2023-04-24T00:15:55;9.07;;;6.85;;
53652;SDS011;39553;52.954;5.932;2023-04-24T00:18:21;10.75;;;6.95;;
53652;SDS011;39553;52.954;5.932;2023-04-24T00:20:47;11.88;;;6.35;;
53652;SDS011;39553;52.954;5.932;2023-04-24T00:23:13;12.63;;;6.50;;
53652;SDS011;39553;52.954;5.932;2023-04-24T00:25:39;8.55;;;5.82;;
53652;SDS011;39553;52.954;5.932;2023-04-24T00:28:05;9.60;;;6.40;;
53652;SDS011;39553;52.954;5.932;2023-04-24T00:30:31;10.27;;;6.63;;
53652;SDS011;39553;52.954;5.932;2023-04-24T00:32:57;8.70;;;6.25;;
53652;SDS011;39553;52.954;5.932;2023-04-24T00:35:23;9.50;;;7.22;;
53652;SDS011;39553;52.954;5.932;2023-04-24T00:37:49;14.13;;;7.45;;
53652;SDS011;39553;52.954;5.932;2023-04-24T00:40:15;9.82;;;7.30;;
53652;SDS011;39553;52.954;5.932;2023-04-24T00:42:41;9.55;;;7.47;;
53652;SDS011;39553;52.954;5.932;2023-04-24T00:45:08;12.02;;;8.07;;
53652;SDS011;39553;52.954;5.932;2023-04-24T00:47:34;10.10;;;6.40;;
53652;SDS011;39553;52.954;5.932;2023-04-24T00:50:01;8.55;;;6.13;;
53652;SDS011;39553;52.954;5.932;2023-04-24T00:52:28;9.80;;;6.70;;
53652;SDS011;39553;52.954;5.932;2023-04-24T00:54:56;10.18;;;6.25;;
53652;SDS011;39553;52.954;5.932;2023-04-24T00:57:22;10.02;;;6.82;;
53652;SDS011;39553;52.954;5.932;2023-04-24T00:59:48;10.45;;;6.35;;
53652;SDS011;39553;52.954;5.932;2023-04-24T01:02:15;8.70;;;6.10;;
53652;SDS011;39553;52.954;5.932;2023-04-24T01:04:41;6.95;;;5.22;;
53652;SDS011;39553;52.954;5.932;2023-04-24T01:07:08;6.47;;;5.40;;
53652;SDS011;39553;52.954;5.932;2023-04-24T01:09:39;13.55;;;7.10;;
53652;SDS011;39553;52.954;5.932;2023-04-24T01:12:09;8.90;;;6.30;;
53652;SDS011;39553;52.954;5.932;2023-04-24T01:14:34;9.85;;;6.78;;
53652;SDS011;39553;52.954;5.932;2023-04-24T01:17:01;9.57;;;6.43;;
53652;SDS011;39553;52.954;5.932;2023-04-24T01:19:27;9.95;;;6.45;;
53652;SDS011;39553;52.954;5.932;2023-04-24T01:21:53;7.70;;;5.75;;
53652;SDS011;39553;52.954;5.932;2023-04-24T01:24:23;8.75;;;6.43;;
53652;SDS011;39553;52.954;5.932;2023-04-24T01:26:49;8.00;;;5.60;;
53652;SDS011;39553;52.954;5.932;2023-04-24T01:29:15;9.70;;;7.00;;
53652;SDS011;39553;52.954;5.932;2023-04-24T01:31:40;13.43;;;7.22;;
53652;SDS011;39553;52.954;5.932;2023-04-24T01:34:06;10.05;;;6.60;;
53652;SDS011;39553;52.954;5.932;2023-04-24T01:36:33;10.43;;;6.55;;
53652;SDS011;39553;52.954;5.932;2023-04-24T01:39:01;8.30;;;6.40;;
53652;SDS011;39553;52.954;5.932;2023-04-24T01:41:27;10.25;;;7.03;;
53652;SDS011;39553;52.954;5.932;2023-04-24T01:43:54;14.23;;;6.35;;
53652;SDS011;39553;52.954;5.932;2023-04-24T01:46:20;10.05;;;6.35;;
53652;SDS011;39553;52.954;5.932;2023-04-24T01:48:46;9.70;;;6.80;;
53652;SDS011;39553;52.954;5.932;2023-04-24T01:51:12;10.75;;;7.25;;
53652;SDS011;39553;52.954;5.932;2023-04-24T01:53:38;9.95;;;6.80;;
53652;SDS011;39553;52.954;5.932;2023-04-24T01:56:03;10.98;;;7.00;;
53652;SDS011;39553;52.954;5.932;2023-04-24T01:58:30;10.02;;;7.07;;
53652;SDS011;39553;52.954;5.932;2023-04-24T02:00:56;10.10;;;7.05;;
53652;SDS011;39553;52.954;5.932;2023-04-24T02:03:24;12.30;;;7.32;;
53652;SDS011;39553;52.954;5.932;2023-04-24T02:05:51;7.72;;;6.13;;
53652;SDS011;39553;52.954;5.932;2023-04-24T02:08:17;8.75;;;6.25;;
53652;SDS011;39553;52.954;5.932;2023-04-24T02:10:43;11.25;;;7.05;;
53652;SDS011;39553;52.954;5.932;2023-04-24T02:13:09;9.98;;;6.95;;
53652;SDS011;39553;52.954;5.932;2023-04-24T02:15:35;10.43;;;6.82;;
53652;SDS011;39553;52.954;5.932;2023-04-24T02:18:01;10.07;;;7.43;;
53652;SDS011;39553;52.954;5.932;2023-04-24T02:20:27;10.65;;;8.10;;
53652;SDS011;39553;52.954;5.932;2023-04-24T02:22:52;12.52;;;7.93;;
53652;SDS011;39553;52.954;5.932;2023-04-24T02:25:18;14.20;;;8.18;;
53652;SDS011;39553;52.954;5.932;2023-04-24T02:27:44;12.05;;;7.47;;
53652;SDS011;39553;52.954;5.932;2023-04-24T02:30:10;15.15;;;8.77;;
53652;SDS011;39553;52.954;5.932;2023-04-24T02:32:36;14.85;;;9.93;;
53652;SDS011;39553;52.954;5.932;2023-04-24T02:35:02;12.75;;;9.18;;
53652;SDS011;39553;52.954;5.932;2023-04-24T02:37:28;14.82;;;9.50;;
53652;SDS011;39553;52.954;5.932;2023-04-24T02:39:54;14.73;;;9.60;;
53652;SDS011;39553;52.954;5.932;2023-04-24T02:42:19;15.93;;;9.40;;
53652;SDS011;39553;52.954;5.932;2023-04-24T02:44:45;16.23;;;9.93;;
53652;SDS011;39553;52.954;5.932;2023-04-24T02:47:11;15.55;;;9.85;;
53652;SDS011;39553;52.954;5.932;2023-04-24T02:49:37;16.25;;;10.88;;
53652;SDS011;39553;52.954;5.932;2023-04-24T02:52:03;18.23;;;11.93;;
53652;SDS011;39553;52.954;5.932;2023-04-24T02:54:29;17.60;;;11.13;;
53652;SDS011;39553;52.954;5.932;2023-04-24T02:56:54;16.58;;;11.10;;
53652;SDS011;39553;52.954;5.932;2023-04-24T02:59:21;17.45;;;11.23;;
53652;SDS011;39553;52.954;5.932;2023-04-24T03:01:47;19.70;;;12.13;;
53652;SDS011;39553;52.954;5.932;2023-04-24T03:04:13;20.70;;;12.50;;
53652;SDS011;39553;52.954;5.932;2023-04-24T03:06:39;20.15;;;12.40;;
53652;SDS011;39553;52.954;5.932;2023-04-24T03:09:04;18.77;;;11.95;;
53652;SDS011;39553;52.954;5.932;2023-04-24T03:11:30;21.08;;;13.70;;
53652;SDS011;39553;52.954;5.932;2023-04-24T03:13:56;22.85;;;14.68;;
53652;SDS011;39553;52.954;5.932;2023-04-24T03:16:22;20.17;;;11.95;;
53652;SDS011;39553;52.954;5.932;2023-04-24T03:18:48;10.10;;;6.10;;
53652;SDS011;39553;52.954;5.932;2023-04-24T03:21:14;7.82;;;5.25;;
53652;SDS011;39553;52.954;5.932;2023-04-24T03:23:39;8.40;;;5.30;;
53652;SDS011;39553;52.954;5.932;2023-04-24T03:26:05;7.85;;;5.03;;
53652;SDS011;39553;52.954;5.932;2023-04-24T03:28:31;4.78;;;3.17;;
53652;SDS011;39553;52.954;5.932;2023-04-24T03:30:57;5.25;;;2.95;;
53652;SDS011;39553;52.954;5.932;2023-04-24T03:33:23;5.57;;;3.70;;
53652;SDS011;39553;52.954;5.932;2023-04-24T03:35:48;8.80;;;4.13;;
53652;SDS011;39553;52.954;5.932;2023-04-24T03:38:14;6.35;;;4.20;;
53652;SDS011;39553;52.954;5.932;2023-04-24T03:40:40;6.45;;;4.43;;
53652;SDS011;39553;52.954;5.932;2023-04-24T03:43:06;7.15;;;5.47;;
53652;SDS011;39553;52.954;5.932;2023-04-24T03:45:32;7.82;;;5.63;;
53652;SDS011;39553;52.954;5.932;2023-04-24T03:47:57;12.20;;;6.30;;
53652;SDS011;39553;52.954;5.932;2023-04-24T03:50:23;8.20;;;4.25;;
53652;SDS011;39553;52.954;5.932;2023-04-24T03:52:49;11.63;;;8.32;;
53652;SDS011;39553;52.954;5.932;2023-04-24T03:55:15;12.18;;;7.35;;
53652;SDS011;39553;52.954;5.932;2023-04-24T03:57:40;12.80;;;8.25;;
53652;SDS011;39553;52.954;5.932;2023-04-24T04:00:06;13.60;;;7.88;;
53652;SDS011;39553;52.954;5.932;2023-04-24T04:02:33;16.85;;;9.07;;
53652;SDS011;39553;52.954;5.932;2023-04-24T04:04:59;13.73;;;7.95;;
53652;SDS011;39553;52.954;5.932;2023-04-24T04:07:25;15.00;;;10.07;;
53652;SDS011;39553;52.954;5.932;2023-04-24T04:09:51;16.27;;;10.57;;
53652;SDS011;39553;52.954;5.932;2023-04-24T04:12:17;16.20;;;10.55;;
53652;SDS011;39553;52.954;5.932;2023-04-24T04:14:42;14.48;;;10.38;;
53652;SDS011;39553;52.954;5.932;2023-04-24T04:17:08;16.77;;;10.85;;
53652;SDS011;39553;52.954;5.932;2023-04-24T04:19:34;18.77;;;11.98;;
53652;SDS011;39553;52.954;5.932;2023-04-24T04:22:00;18.30;;;11.73;;
53652;SDS011;39553;52.954;5.932;2023-04-24T04:24:25;13.57;;;9.65;;
53652;SDS011;39553;52.954;5.932;2023-04-24T04:26:51;16.83;;;11.18;;
53652;SDS011;39553;52.954;5.932;2023-04-24T04:29:17;12.63;;;8.23;;
53652;SDS011;39553;52.954;5.932;2023-04-24T04:31:43;12.82;;;7.03;;
53652;SDS011;39553;52.954;5.932;2023-04-24T04:34:09;10.63;;;6.15;;
53652;SDS011;39553;52.954;5.932;2023-04-24T04:36:36;9.07;;;6.40;;
53652;SDS011;39553;52.954;5.932;2023-04-24T04:39:05;9.45;;;6.13;;
53652;SDS011;39553;52.954;5.932;2023-04-24T04:41:31;11.93;;;6.47;;
53652;SDS011;39553;52.954;5.932;2023-04-24T04:44:00;6.28;;;4.38;;
53652;SDS011;39553;52.954;5.932;2023-04-24T04:46:26;11.13;;;6.22;;
53652;SDS011;39553;52.954;5.932;2023-04-24T04:48:52;6.70;;;4.45;;
53652;SDS011;39553;52.954;5.932;2023-04-24T04:51:19;6.53;;;5.07;;
53652;SDS011;39553;52.954;5.932;2023-04-24T04:53:45;8.48;;;6.10;;
53652;SDS011;39553;52.954;5.932;2023-04-24T04:56:10;3.60;;;2.30;;
53652;SDS011;39553;52.954;5.932;2023-04-24T04:58:36;6.43;;;4.05;;
53652;SDS011;39553;52.954;5.932;2023-04-24T05:01:02;4.78;;;3.03;;
53652;SDS011;39553;52.954;5.932;2023-04-24T05:03:28;5.25;;;3.30;;
53652;SDS011;39553;52.954;5.932;2023-04-24T05:05:54;3.40;;;2.33;;
53652;SDS011;39553;52.954;5.932;2023-04-24T05:08:20;4.03;;;2.35;;
53652;SDS011;39553;52.954;5.932;2023-04-24T05:10:45;4.55;;;2.50;;
53652;SDS011;39553;52.954;5.932;2023-04-24T05:13:11;6.05;;;2.38;;
53652;SDS011;39553;52.954;5.932;2023-04-24T05:15:37;3.17;;;1.98;;
53652;SDS011;39553;52.954;5.932;2023-04-24T05:18:03;2.80;;;1.73;;
53652;SDS011;39553;52.954;5.932;2023-04-24T05:20:29;4.40;;;2.45;;
53652;SDS011;39553;52.954;5.932;2023-04-24T05:22:54;5.30;;;2.47;;
53652;SDS011;39553;52.954;5.932;2023-04-24T05:25:20;5.95;;;3.08;;
53652;SDS011;39553;52.954;5.932;2023-04-24T05:27:50;5.85;;;3.00;;
53652;SDS011;39553;52.954;5.932;2023-04-24T05:30:25;8.40;;;3.55;;
53652;SDS011;39553;52.954;5.932;2023-04-24T05:32:51;9.48;;;3.60;;
53652;SDS011;39553;52.954;5.932;2023-04-24T05:35:16;12.10;;;4.70;;
53652;SDS011;39553;52.954;5.932;2023-04-24T05:37:43;9.25;;;4.57;;
53652;SDS011;39553;52.954;5.932;2023-04-24T05:40:09;8.23;;;4.93;;
53652;SDS011;39553;52.954;5.932;2023-04-24T05:42:36;6.32;;;4.10;;
53652;SDS011;39553;52.954;5.932;2023-04-24T05:45:05;8.18;;;5.20;;
53652;SDS011;39553;52.954;5.932;2023-04-24T05:47:36;7.25;;;5.00;;
53652;SDS011;39553;52.954;5.932;2023-04-24T05:50:02;7.28;;;4.75;;
53652;SDS011;39553;52.954;5.932;2023-04-24T05:52:28;8.90;;;5.85;;
53652;SDS011;39553;52.954;5.932;2023-04-24T05:54:54;13.35;;;5.40;;
53652;SDS011;39553;52.954;5.932;2023-04-24T05:57:20;11.60;;;6.30;;
53652;SDS011;39553;52.954;5.932;2023-04-24T05:59:46;7.53;;;5.68;;
53652;SDS011;39553;52.954;5.932;2023-04-24T06:02:12;15.65;;;6.75;;
53652;SDS011;39553;52.954;5.932;2023-04-24T06:04:37;10.65;;;5.03;;
53652;SDS011;39553;52.954;5.932;2023-04-24T06:07:03;11.20;;;5.35;;
53652;SDS011;39553;52.954;5.932;2023-04-24T06:09:29;9.20;;;5.65;;
53652;SDS011;39553;52.954;5.932;2023-04-24T06:11:54;9.30;;;4.68;;
53652;SDS011;39553;52.954;5.932;2023-04-24T06:14:21;8.55;;;3.90;;
53652;SDS011;39553;52.954;5.932;2023-04-24T06:16:47;6.00;;;3.97;;
53652;SDS011;39553;52.954;5.932;2023-04-24T06:19:13;5.93;;;3.80;;
53652;SDS011;39553;52.954;5.932;2023-04-24T06:21:38;6.35;;;3.47;;
53652;SDS011;39553;52.954;5.932;2023-04-24T06:24:04;5.22;;;2.72;;
53652;SDS011;39553;52.954;5.932;2023-04-24T06:26:30;7.43;;;2.75;;
53652;SDS011;39553;52.954;5.932;2023-04-24T06:28:56;5.50;;;3.63;;
53652;SDS011;39553;52.954;5.932;2023-04-24T06:31:24;5.28;;;2.05;;
53652;SDS011;39553;52.954;5.932;2023-04-24T06:33:49;3.15;;;1.48;;
53652;SDS011;39553;52.954;5.932;2023-04-24T06:36:15;6.10;;;2.15;;
53652;SDS011;39553;52.954;5.932;2023-04-24T06:38:42;2.55;;;1.60;;
53652;SDS011;39553;52.954;5.932;2023-04-24T06:41:07;4.70;;;2.20;;
53652;SDS011;39553;52.954;5.932;2023-04-24T06:43:34;3.67;;;1.95;;
53652;SDS011;39553;52.954;5.932;2023-04-24T06:46:00;2.53;;;2.22;;
53652;SDS011;39553;52.954;5.932;2023-04-24T06:48:28;10.02;;;2.30;;
53652;SDS011;39553;52.954;5.932;2023-04-24T06:50:54;5.97;;;2.25;;
53652;SDS011;39553;52.954;5.932;2023-04-24T06:53:20;7.32;;;2.72;;
53652;SDS011;39553;52.954;5.932;2023-04-24T06:55:46;9.95;;;4.15;;
53652;SDS011;39553;52.954;5.932;2023-04-24T06:58:12;9.75;;;5.03;;
53652;SDS011;39553;52.954;5.932;2023-04-24T07:00:38;11.30;;;5.93;;
53652;SDS011;39553;52.954;5.932;2023-04-24T07:03:03;12.10;;;6.65;;
53652;SDS011;39553;52.954;5.932;2023-04-24T07:05:32;16.77;;;6.85;;
53652;SDS011;39553;52.954;5.932;2023-04-24T07:08:00;19.17;;;9.88;;
53652;SDS011;39553;52.954;5.932;2023-04-24T07:10:27;23.45;;;12.27;;
53652;SDS011;39553;52.954;5.932;2023-04-24T07:12:54;21.65;;;11.70;;
53652;SDS011;39553;52.954;5.932;2023-04-24T07:15:21;33.08;;;13.30;;
53652;SDS011;39553;52.954;5.932;2023-04-24T07:17:48;26.10;;;13.45;;
53652;SDS011;39553;52.954;5.932;2023-04-24T07:20:14;28.92;;;14.73;;
53652;SDS011;39553;52.954;5.932;2023-04-24T07:22:40;29.65;;;14.65;;
53652;SDS011;39553;52.954;5.932;2023-04-24T07:25:07;23.40;;;12.77;;
53652;SDS011;39553;52.954;5.932;2023-04-24T07:27:33;26.08;;;11.48;;
53652;SDS011;39553;52.954;5.932;2023-04-24T07:30:01;23.92;;;12.30;;
53652;SDS011;39553;52.954;5.932;2023-04-24T07:32:27;24.58;;;12.00;;
53652;SDS011;39553;52.954;5.932;2023-04-24T07:34:53;23.90;;;11.57;;
53652;SDS011;39553;52.954;5.932;2023-04-24T07:37:19;20.77;;;11.80;;
53652;SDS011;39553;52.954;5.932;2023-04-24T07:39:45;15.48;;;8.32;;
53652;SDS011;39553;52.954;5.932;2023-04-24T07:42:11;28.88;;;14.38;;
53652;SDS011;39553;52.954;5.932;2023-04-24T07:44:36;26.33;;;13.38;;
53652;SDS011;39553;52.954;5.932;2023-04-24T07:47:02;22.50;;;12.48;;
53652;SDS011;39553;52.954;5.932;2023-04-24T07:49:28;23.42;;;10.57;;
53652;SDS011;39553;52.954;5.932;2023-04-24T07:51:54;28.23;;;10.73;;
53652;SDS011;39553;52.954;5.932;2023-04-24T07:54:20;22.80;;;8.65;;
53652;SDS011;39553;52.954;5.932;2023-04-24T07:56:45;25.75;;;13.15;;
53652;SDS011;39553;52.954;5.932;2023-04-24T07:59:11;17.92;;;10.50;;
53652;SDS011;39553;52.954;5.932;2023-04-24T08:01:37;17.75;;;8.07;;
53652;SDS011;39553;52.954;5.932;2023-04-24T08:04:03;15.98;;;7.60;;
53652;SDS011;39553;52.954;5.932;2023-04-24T08:06:29;16.33;;;8.68;;
53652;SDS011;39553;52.954;5.932;2023-04-24T08:08:58;16.15;;;8.38;;
53652;SDS011;39553;52.954;5.932;2023-04-24T08:11:25;12.48;;;5.53;;
53652;SDS011;39553;52.954;5.932;2023-04-24T08:13:51;15.68;;;8.90;;
53652;SDS011;39553;52.954;5.932;2023-04-24T08:16:17;13.80;;;7.45;;
53652;SDS011;39553;52.954;5.932;2023-04-24T08:18:43;18.17;;;8.70;;
53652;SDS011;39553;52.954;5.932;2023-04-24T08:21:08;16.00;;;6.47;;
53652;SDS011;39553;52.954;5.932;2023-04-24T08:23:34;10.93;;;6.05;;
53652;SDS011;39553;52.954;5.932;2023-04-24T08:26:00;6.57;;;3.97;;
53652;SDS011;39553;52.954;5.932;2023-04-24T08:28:26;13.43;;;6.72;;
53652;SDS011;39553;52.954;5.932;2023-04-24T08:30:51;12.07;;;5.85;;
53652;SDS011;39553;52.954;5.932;2023-04-24T08:33:20;21.83;;;8.05;;
53652;SDS011;39553;52.954;5.932;2023-04-24T08:35:47;11.02;;;6.80;;
53652;SDS011;39553;52.954;5.932;2023-04-24T08:38:12;9.15;;;4.57;;
53652;SDS011;39553;52.954;5.932;2023-04-24T08:40:38;10.10;;;6.03;;
53652;SDS011;39553;52.954;5.932;2023-04-24T08:43:04;7.28;;;5.15;;
53652;SDS011;39553;52.954;5.932;2023-04-24T08:45:30;7.07;;;5.00;;
53652;SDS011;39553;52.954;5.932;2023-04-24T08:47:58;8.52;;;5.50;;
53652;SDS011;39553;52.954;5.932;2023-04-24T08:50:25;12.40;;;5.43;;
53652;SDS011;39553;52.954;5.932;2023-04-24T08:52:51;9.32;;;5.50;;
53652;SDS011;39553;52.954;5.932;2023-04-24T08:55:22;11.85;;;5.85;;
53652;SDS011;39553;52.954;5.932;2023-04-24T08:57:50;10.13;;;6.22;;
53652;SDS011;39553;52.954;5.932;2023-04-24T09:00:18;15.70;;;5.22;;
53652;SDS011;39553;52.954;5.932;2023-04-24T09:02:46;12.57;;;4.45;;
53652;SDS011;39553;52.954;5.932;2023-04-24T09:05:14;10.52;;;4.38;;
53652;SDS011;39553;52.954;5.932;2023-04-24T09:07:44;8.27;;;3.40;;
53652;SDS011;39553;52.954;5.932;2023-04-24T09:10:11;6.68;;;2.83;;
53652;SDS011;39553;52.954;5.932;2023-04-24T09:12:38;6.82;;;3.83;;
53652;SDS011;39553;52.954;5.932;2023-04-24T09:15:03;6.47;;;3.03;;
53652;SDS011;39553;52.954;5.932;2023-04-24T09:17:31;8.95;;;2.92;;
53652;SDS011;39553;52.954;5.932;2023-04-24T09:19:58;6.93;;;3.45;;
53652;SDS011;39553;52.954;5.932;2023-04-24T09:22:24;10.50;;;3.17;;
53652;SDS011;39553;52.954;5.932;2023-04-24T09:24:59;10.10;;;4.40;;
53652;SDS011;39553;52.954;5.932;2023-04-24T09:27:36;5.82;;;3.35;;
53652;SDS011;39553;52.954;5.932;2023-04-24T09:30:08;7.05;;;3.35;;
53652;SDS011;39553;52.954;5.932;2023-04-24T09:32:34;12.52;;;2.25;;
53652;SDS011;39553;52.954;5.932;2023-04-24T09:35:13;10.07;;;3.33;;
53652;SDS011;39553;52.954;5.932;2023-04-24T09:37:41;14.98;;;3.83;;
53652;SDS011;39553;52.954;5.932;2023-04-24T09:40:09;9.25;;;3.33;;
53652;SDS011;39553;52.954;5.932;2023-04-24T09:42:53;6.43;;;2.38;;
53652;SDS011;39553;52.954;5.932;2023-04-24T09:45:35;5.03;;;2.53;;
53652;SDS011;39553;52.954;5.932;2023-04-24T09:48:02;4.63;;;2.58;;
53652;SDS011;39553;52.954;5.932;2023-04-24T09:50:29;4.07;;;2.35;;
53652;SDS011;39553;52.954;5.932;2023-04-24T09:53:06;8.55;;;2.75;;
53652;SDS011;39553;52.954;5.932;2023-04-24T09:55:39;7.80;;;2.75;;
53652;SDS011;39553;52.954;5.932;2023-04-24T09:58:09;5.57;;;2.28;;
53652;SDS011;39553;52.954;5.932;2023-04-24T10:00:35;7.15;;;2.55;;
53652;SDS011;39553;52.954;5.932;2023-04-24T10:03:03;7.82;;;1.95;;
53652;SDS011;39553;52.954;5.932;2023-04-24T10:05:33;8.75;;;1.63;;
53652;SDS011;39553;52.954;5.932;2023-04-24T10:08:01;5.78;;;2.20;;
53652;SDS011;39553;52.954;5.932;2023-04-24T10:10:29;10.10;;;2.50;;
53652;SDS011;39553;52.954;5.932;2023-04-24T10:12:55;5.43;;;2.58;;
53652;SDS011;39553;52.954;5.932;2023-04-24T10:15:21;4.55;;;1.88;;
53652;SDS011;39553;52.954;5.932;2023-04-24T10:17:49;4.28;;;1.50;;
53652;SDS011;39553;52.954;5.932;2023-04-24T10:20:22;8.95;;;2.00;;
53652;SDS011;39553;52.954;5.932;2023-04-24T10:22:56;8.82;;;2.05;;
53652;SDS011;39553;52.954;5.932;2023-04-24T10:25:24;9.80;;;2.40;;
53652;SDS011;39553;52.954;5.932;2023-04-24T10:27:57;25.35;;;1.73;;
53652;SDS011;39553;52.954;5.932;2023-04-24T10:30:27;8.93;;;2.42;;
53652;SDS011;39553;52.954;5.932;2023-04-24T10:32:55;3.10;;;1.83;;
53652;SDS011;39553;52.954;5.932;2023-04-24T10:35:21;5.70;;;1.50;;
53652;SDS011;39553;52.954;5.932;2023-04-24T10:37:50;3.72;;;1.40;;
53652;SDS011;39553;52.954;5.932;2023-04-24T10:40:34;2.33;;;1.20;;
53652;SDS011;39553;52.954;5.932;2023-04-24T10:43:05;4.22;;;1.45;;
53652;SDS011;39553;52.954;5.932;2023-04-24T10:45:39;6.30;;;1.65;;
53652;SDS011;39553;52.954;5.932;2023-04-24T10:48:06;7.72;;;1.63;;
53652;SDS011;39553;52.954;5.932;2023-04-24T10:53:21;3.25;;;1.08;;
53652;SDS011;39553;52.954;5.932;2023-04-24T10:56:07;11.32;;;1.70;;
53652;SDS011;39553;52.954;5.932;2023-04-24T10:58:38;6.15;;;1.40;;
53652;SDS011;39553;52.954;5.932;2023-04-24T11:01:06;2.92;;;1.50;;
53652;SDS011;39553;52.954;5.932;2023-04-24T11:03:33;4.70;;;1.40;;
53652;SDS011;39553;52.954;5.932;2023-04-24T11:06:07;4.88;;;1.13;;
53652;SDS011;39553;52.954;5.932;2023-04-24T11:08:38;14.63;;;2.05;;
53652;SDS011;39553;52.954;5.932;2023-04-24T11:11:14;6.33;;;1.47;;
53652;SDS011;39553;52.954;5.932;2023-04-24T11:21:42;1.92;;;0.98;;
53652;SDS011;39553;52.954;5.932;2023-04-24T11:24:27;1.45;;;0.80;;
53652;SDS011;39553;52.954;5.932;2023-04-24T11:29:51;3.97;;;1.08;;
53652;SDS011;39553;52.954;5.932;2023-04-24T11:35:08;2.35;;;1.08;;
53652;SDS011;39553;52.954;5.932;2023-04-24T11:40:10;3.85;;;1.20;;
53652;SDS011;39553;52.954;5.932;2023-04-24T11:42:39;10.30;;;1.70;;
53652;SDS011;39553;52.954;5.932;2023-04-24T11:45:10;1.70;;;0.63;;
53652;SDS011;39553;52.954;5.932;2023-04-24T11:47:41;2.05;;;1.05;;
53652;SDS011;39553;52.954;5.932;2023-04-24T11:50:08;3.72;;;0.68;;
53652;SDS011;39553;52.954;5.932;2023-04-24T11:52:36;1.23;;;0.70;;
53652;SDS011;39553;52.954;5.932;2023-04-24T11:55:03;2.65;;;0.90;;
53652;SDS011;39553;52.954;5.932;2023-04-24T11:57:31;2.38;;;0.70;;
53652;SDS011;39553;52.954;5.932;2023-04-24T12:00:02;1.73;;;1.10;;
53652;SDS011;39553;52.954;5.932;2023-04-24T12:02:30;3.45;;;1.33;;
53652;SDS011;39553;52.954;5.932;2023-04-24T12:04:56;2.30;;;0.70;;
53652;SDS011;39553;52.954;5.932;2023-04-24T12:07:22;4.38;;;0.95;;
53652;SDS011;39553;52.954;5.932;2023-04-24T12:09:56;3.85;;;1.20;;
53652;SDS011;39553;52.954;5.932;2023-04-24T12:12:25;2.90;;;0.85;;
53652;SDS011;39553;52.954;5.932;2023-04-24T12:14:56;0.93;;;0.55;;
53652;SDS011;39553;52.954;5.932;2023-04-24T12:17:29;2.92;;;0.80;;
53652;SDS011;39553;52.954;5.932;2023-04-24T12:19:57;4.32;;;1.13;;
53652;SDS011;39553;52.954;5.932;2023-04-24T12:22:47;3.35;;;0.70;;
53652;SDS011;39553;52.954;5.932;2023-04-24T12:25:27;28.00;;;15.07;;
53652;SDS011;39553;52.954;5.932;2023-04-24T12:30:46;2.42;;;1.10;;
53652;SDS011;39553;52.954;5.932;2023-04-24T12:33:20;1.80;;;0.85;;
53652;SDS011;39553;52.954;5.932;2023-04-24T12:35:47;4.40;;;0.73;;
53652;SDS011;39553;52.954;5.932;2023-04-24T12:38:16;3.80;;;0.60;;
53652;SDS011;39553;52.954;5.932;2023-04-24T12:40:47;2.13;;;1.40;;
53652;SDS011;39553;52.954;5.932;2023-04-24T12:43:17;1.45;;;1.35;;
53652;SDS011;39553;52.954;5.932;2023-04-24T12:45:45;4.05;;;1.38;;
53652;SDS011;39553;52.954;5.932;2023-04-24T12:48:14;1.77;;;0.90;;
53652;SDS011;39553;52.954;5.932;2023-04-24T12:50:40;4.13;;;1.45;;
53652;SDS011;39553;52.954;5.932;2023-04-24T12:53:07;1.52;;;1.00;;
53652;SDS011;39553;52.954;5.932;2023-04-24T12:55:33;5.13;;;1.30;;
53652;SDS011;39553;52.954;5.932;2023-04-24T12:57:59;1.88;;;0.98;;
53652;SDS011;39553;52.954;5.932;2023-04-24T13:00:26;3.95;;;0.80;;
53652;SDS011;39553;52.954;5.932;2023-04-24T13:02:52;1.50;;;0.90;;
53652;SDS011;39553;52.954;5.932;2023-04-24T13:05:18;1.42;;;0.70;;
53652;SDS011;39553;52.954;5.932;2023-04-24T13:07:44;1.77;;;0.68;;
53652;SDS011;39553;52.954;5.932;2023-04-24T13:10:10;1.15;;;0.55;;
53652;SDS011;39553;52.954;5.932;2023-04-24T13:12:38;2.30;;;0.93;;
53652;SDS011;39553;52.954;5.932;2023-04-24T13:15:05;1.83;;;1.13;;
53652;SDS011;39553;52.954;5.932;2023-04-24T13:17:32;1.20;;;0.90;;
53652;SDS011;39553;52.954;5.932;2023-04-24T13:19:58;2.13;;;1.25;;
53652;SDS011;39553;52.954;5.932;2023-04-24T13:22:25;5.78;;;1.67;;
53652;SDS011;39553;52.954;5.932;2023-04-24T13:24:52;2.83;;;1.10;;
53652;SDS011;39553;52.954;5.932;2023-04-24T13:27:18;2.75;;;0.80;;
53652;SDS011;39553;52.954;5.932;2023-04-24T13:29:44;9.93;;;4.65;;
53652;SDS011;39553;52.954;5.932;2023-04-24T13:32:10;16.75;;;8.00;;
53652;SDS011;39553;52.954;5.932;2023-04-24T13:34:36;19.80;;;6.72;;
53652;SDS011;39553;52.954;5.932;2023-04-24T13:37:02;7.30;;;4.55;;
53652;SDS011;39553;52.954;5.932;2023-04-24T13:39:32;10.18;;;4.88;;
53652;SDS011;39553;52.954;5.932;2023-04-24T13:42:00;6.88;;;1.90;;
53652;SDS011;39553;52.954;5.932;2023-04-24T13:44:26;3.95;;;1.58;;
53652;SDS011;39553;52.954;5.932;2023-04-24T13:46:52;4.53;;;1.23;;
53652;SDS011;39553;52.954;5.932;2023-04-24T13:49:22;5.40;;;1.27;;
53652;SDS011;39553;52.954;5.932;2023-04-24T13:51:51;5.28;;;0.90;;
53652;SDS011;39553;52.954;5.932;2023-04-24T13:54:17;6.03;;;2.35;;
53652;SDS011;39553;52.954;5.932;2023-04-24T13:56:49;7.32;;;1.67;;
53652;SDS011;39553;52.954;5.932;2023-04-24T13:59:15;19.83;;;7.55;;
53652;SDS011;39553;52.954;5.932;2023-04-24T14:01:41;12.32;;;4.10;;
53652;SDS011;39553;52.954;5.932;2023-04-24T14:04:06;9.13;;;3.45;;
53652;SDS011;39553;52.954;5.932;2023-04-24T14:06:35;10.98;;;3.90;;
53652;SDS011;39553;52.954;5.932;2023-04-24T14:09:01;4.18;;;2.08;;
53652;SDS011;39553;52.954;5.932;2023-04-24T14:11:27;4.18;;;1.35;;
53652;SDS011;39553;52.954;5.932;2023-04-24T14:13:53;7.28;;;1.70;;
53652;SDS011;39553;52.954;5.932;2023-04-24T14:16:21;10.40;;;1.20;;
53652;SDS011;39553;52.954;5.932;2023-04-24T14:18:47;4.90;;;2.28;;
53652;SDS011;39553;52.954;5.932;2023-04-24T14:21:13;6.95;;;2.28;;
53652;SDS011;39553;52.954;5.932;2023-04-24T14:23:41;6.38;;;1.75;;
53652;SDS011;39553;52.954;5.932;2023-04-24T14:26:07;4.60;;;1.95;;
53652;SDS011;39553;52.954;5.932;2023-04-24T14:28:33;7.80;;;2.03;;
53652;SDS011;39553;52.954;5.932;2023-04-24T14:30:59;4.45;;;1.60;;
53652;SDS011;39553;52.954;5.932;2023-04-24T14:33:25;8.38;;;2.25;;
53652;SDS011;39553;52.954;5.932;2023-04-24T14:35:50;8.20;;;2.17;;
53652;SDS011;39553;52.954;5.932;2023-04-24T14:38:16;8.23;;;1.80;;
53652;SDS011;39553;52.954;5.932;2023-04-24T14:40:42;5.00;;;1.77;;
53652;SDS011;39553;52.954;5.932;2023-04-24T14:43:08;4.50;;;2.00;;
53652;SDS011;39553;52.954;5.932;2023-04-24T14:45:34;6.40;;;1.50;;
53652;SDS011;39553;52.954;5.932;2023-04-24T14:48:00;6.05;;;2.10;;
53652;SDS011;39553;52.954;5.932;2023-04-24T14:50:25;6.30;;;1.75;;
53652;SDS011;39553;52.954;5.932;2023-04-24T14:52:57;11.75;;;2.05;;
53652;SDS011;39553;52.954;5.932;2023-04-24T14:55:23;1.38;;;1.00;;
53652;SDS011;39553;52.954;5.932;2023-04-24T14:57:50;6.80;;;2.08;;
53652;SDS011;39553;52.954;5.932;2023-04-24T15:00:16;5.57;;;1.75;;
53652;SDS011;39553;52.954;5.932;2023-04-24T15:02:42;5.93;;;1.98;;